CYAZ/YAZ METAR and TAF weather

Enter ICAO airport designator
Station Type Date Time Source
CYAZ METAR 2019/12/14 01:00 UTC NOAA

CYAZ 140100Z 00000KT 10SM FEW004 FEW050 04/04 A3001 RMK CF1SC1 CF TR VIS LWR ALG SHR LAST STFD OBS/NEXT 141500UTC SLP166


Station Type Date Time Source
CYAZ Decoded METAR 2019/12/14 01:00 UTC NOAA

Tofino Airport, Canada (CYAZ) 49-05N 125-46W
Dec 13, 2019 - 08:00 PM EST / 2019.12.14 0100 UTC
Wind: Calm:0
Visibility: 10 mile(s):0
Sky conditions: mostly clear
Temperature: 39 F (4 C)
Dew Point: 39 F (4 C)
Relative Humidity: 100%
Pressure (altimeter): 30.01 in. Hg (1016 hPa)
ob: CYAZ 140100Z 00000KT 10SM FEW004 FEW050 04/04 A3001 RMK CF1SC1 CF TR VIS LWR ALG SHR LAST STFD OBS/NEXT 141500UTC SLP166
cycle: 1

Station Type Date Time Source
CYAZ TAF 2019/12/13 18:00 UTC NOAA

TAF CYAZ 131738Z 1318/1401 VRB03KT P6SM SCT030 BKN050
TEMPO 1318/1401 5SM -SHRA BR BKN020 PROB30 1318/1401 3SM TSRA BR BKN008
RMK NXT FCST WILL BE ISSUED AT 141645Z

Example: see airport list